createdAt,value
2022-09-28T00:02:15.568Z,44
2022-09-28T00:32:17.356Z,44
2022-09-28T01:04:19.409Z,44
2022-09-28T01:34:21.259Z,44
2022-09-28T02:04:23.257Z,44.5
2022-09-28T02:35:25.209Z,44.5
2022-09-28T03:06:27.101Z,44.5
2022-09-28T03:36:29.057Z,44.5
2022-09-28T04:12:31.270Z,44.5
2022-09-28T04:42:33.079Z,45.1
2022-09-28T05:17:35.074Z,45.6
2022-09-28T05:47:37.051Z,45.1
2022-09-28T06:23:39.276Z,45.6
2022-09-28T06:54:41.248Z,46.7
2022-09-28T07:25:43.246Z,47.8
2022-09-28T07:56:45.402Z,48.3
2022-09-28T08:26:47.463Z,47.2
2022-09-28T08:58:49.347Z,48.9
2022-09-28T09:28:51.336Z,49.4
2022-09-28T09:58:53.439Z,51
2022-09-28T10:28:55.378Z,52.6
2022-09-28T10:58:57.250Z,53.2
2022-09-28T11:29:59.150Z,52.6
2022-09-28T11:46:00.095Z,52.1
2022-09-28T12:19:02.201Z,53.2
2022-09-28T12:52:04.343Z,53.7
2022-09-28T13:23:06.302Z,52.1
2022-09-28T13:54:08.161Z,52.1
2022-09-28T14:24:10.565Z,51.5
2022-09-28T14:54:12.106Z,52.6
2022-09-28T15:25:14.099Z,49.9
2022-09-28T15:55:16.306Z,48.3
2022-09-28T16:25:18.133Z,47.8
2022-09-28T16:55:20.112Z,46.2
2022-09-28T17:25:22.050Z,45.1
2022-09-28T17:55:23.907Z,45.1
2022-09-28T18:35:26.405Z,44
2022-09-28T19:08:28.516Z,43.5
2022-09-28T19:42:30.697Z,42.4
2022-09-28T20:12:32.709Z,42.9
2022-09-28T20:43:34.515Z,41.3
2022-09-28T21:13:36.547Z,41.9
2022-09-28T21:44:38.656Z,40.8
2022-09-28T22:15:40.614Z,41.9
2022-09-28T22:45:42.647Z,41.3
2022-09-28T23:17:44.657Z,42.9
2022-09-28T23:47:46.722Z,44.5
